createdAt,value
2018-05-10T00:01:46.864Z,23.56
2018-05-10T00:04:14.444Z,23.57
2018-05-10T00:06:42.115Z,23.41
2018-05-10T00:09:09.524Z,23.27
2018-05-10T00:11:36.916Z,23.27
2018-05-10T00:14:04.311Z,23.23
2018-05-10T00:16:31.923Z,23.26
2018-05-10T00:18:59.536Z,23.35
2018-05-10T00:21:27.223Z,23.17
2018-05-10T00:23:54.808Z,23.19
2018-05-10T00:26:23.144Z,23.12
2018-05-10T00:28:50.847Z,23.31
2018-05-10T00:31:18.425Z,23.57
2018-05-10T00:33:45.864Z,23.64
2018-05-10T00:36:13.588Z,23.76
2018-05-10T00:38:40.937Z,23.78
2018-05-10T00:41:08.319Z,23.79
2018-05-10T00:43:35.705Z,23.68
2018-05-10T00:46:03.086Z,23.52
2018-05-10T00:48:30.475Z,23.45
2018-05-10T00:50:57.855Z,23.41
2018-05-10T00:53:25.245Z,23.37
2018-05-10T00:55:52.645Z,23.38
2018-05-10T00:58:20.047Z,23.45
2018-05-10T01:00:47.416Z,23.28
2018-05-10T01:03:14.797Z,23.09
2018-05-10T01:05:42.196Z,22.90
2018-05-10T01:08:09.574Z,22.92
2018-05-10T01:10:36.959Z,22.73
2018-05-10T01:13:04.339Z,22.51
2018-05-10T01:15:31.734Z,22.26
2018-05-10T01:17:59.113Z,21.68
2018-05-10T01:20:26.499Z,21.25
2018-05-10T01:22:53.888Z,21.48
2018-05-10T01:25:21.272Z,21.66
2018-05-10T01:27:48.656Z,21.77
2018-05-10T01:30:16.047Z,21.79
2018-05-10T01:32:43.962Z,21.74
2018-05-10T01:35:23.046Z,21.55
2018-05-10T01:37:50.410Z,21.66
2018-05-10T01:40:17.784Z,21.34
2018-05-10T01:42:45.167Z,21.65
2018-05-10T01:45:12.559Z,21.58
2018-05-10T01:47:39.941Z,21.92
2018-05-10T01:50:07.317Z,22.13
2018-05-10T01:52:34.708Z,22.29
2018-05-10T01:55:02.084Z,22.20
2018-05-10T01:57:29.468Z,22.36
2018-05-10T01:59:56.838Z,22.41
2018-05-10T02:02:24.219Z,22.25
2018-05-10T02:04:51.613Z,21.66
2018-05-10T02:07:19.013Z,21.90
2018-05-10T02:09:46.403Z,22.05
2018-05-10T02:12:14.592Z,21.67
2018-05-10T02:14:42.083Z,21.95
2018-05-10T02:17:09.489Z,22.14
2018-05-10T02:19:36.983Z,21.84
2018-05-10T02:22:04.368Z,22.14
2018-05-10T02:24:31.964Z,21.89
2018-05-10T02:26:59.412Z,21.89
2018-05-10T02:29:27.104Z,21.75
2018-05-10T02:31:54.494Z,21.90
2018-05-10T02:34:21.963Z,22.08
2018-05-10T02:36:49.340Z,22.10
2018-05-10T02:39:16.732Z,21.96
2018-05-10T02:41:44.290Z,21.87
2018-05-10T02:44:11.722Z,21.83
2018-05-10T02:46:39.152Z,21.77
2018-05-10T02:49:06.527Z,21.59
2018-05-10T02:51:34.002Z,21.29
2018-05-10T02:54:01.371Z,21.17
2018-05-10T02:56:28.752Z,21.42
2018-05-10T02:58:56.136Z,21.59
2018-05-10T03:01:23.506Z,21.54
2018-05-10T03:03:50.892Z,21.70
2018-05-10T03:06:18.378Z,21.42
2018-05-10T03:08:45.974Z,21.44
2018-05-10T03:11:13.335Z,21.54
2018-05-10T03:13:40.774Z,21.27
2018-05-10T03:16:08.142Z,21.23
2018-05-10T03:18:35.524Z,21.23
2018-05-10T03:21:02.971Z,21.22
2018-05-10T03:23:30.352Z,21.01
2018-05-10T03:25:57.727Z,21.29
2018-05-10T03:28:25.109Z,21.25
2018-05-10T03:30:52.479Z,21.30
2018-05-10T03:33:19.903Z,21.34
2018-05-10T03:35:47.251Z,21.34
2018-05-10T03:38:14.945Z,21.19
2018-05-10T03:40:42.570Z,21.36
2018-05-10T03:43:10.169Z,21.31
2018-05-10T03:45:37.551Z,21.08
2018-05-10T03:48:04.952Z,21.22
2018-05-10T03:50:32.333Z,20.43
2018-05-10T03:52:59.749Z,20.41
2018-05-10T03:55:27.127Z,20.43
2018-05-10T03:57:54.511Z,20.38
2018-05-10T04:00:21.914Z,20.77
2018-05-10T04:06:11.861Z,21.22
2018-05-10T04:08:50.943Z,21.35
2018-05-10T04:11:28.487Z,21.43
2018-05-10T04:13:55.876Z,21.38
2018-05-10T04:16:23.267Z,21.45
2018-05-10T04:18:51.433Z,21.31
2018-05-10T04:21:18.815Z,21.29
2018-05-10T04:23:46.187Z,21.18
2018-05-10T04:26:13.566Z,21.32
2018-05-10T04:28:40.951Z,21.36
2018-05-10T04:31:08.629Z,21.12
2018-05-10T04:33:36.010Z,21.41
2018-05-10T04:36:03.399Z,21.53
2018-05-10T04:38:31.215Z,21.40
2018-05-10T04:40:58.612Z,21.22
2018-05-10T04:43:25.990Z,21.34
2018-05-10T04:45:53.367Z,21.10
2018-05-10T04:48:20.760Z,20.92
2018-05-10T04:50:48.127Z,21.00
2018-05-10T04:53:15.544Z,21.25
2018-05-10T04:55:42.913Z,21.18
2018-05-10T04:58:10.331Z,21.12
2018-05-10T05:00:37.715Z,20.98
2018-05-10T05:03:05.110Z,20.99
2018-05-10T05:05:32.484Z,21.26
2018-05-10T05:07:59.901Z,21.02
2018-05-10T05:10:27.272Z,20.91
2018-05-10T05:12:54.670Z,20.74
2018-05-10T05:15:22.954Z,21.09
2018-05-10T05:17:50.340Z,20.90
2018-05-10T05:20:17.736Z,21.26
2018-05-10T05:22:45.199Z,21.23
2018-05-10T05:25:12.579Z,21.24
2018-05-10T05:27:39.976Z,20.94
2018-05-10T05:30:07.406Z,20.71
2018-05-10T05:32:34.778Z,20.32
2018-05-10T05:35:02.288Z,20.44
2018-05-10T05:37:29.705Z,20.77
2018-05-10T05:39:57.107Z,20.61
2018-05-10T05:42:24.493Z,20.36
2018-05-10T05:44:51.879Z,20.17
2018-05-10T05:47:19.278Z,20.46
2018-05-10T05:49:46.670Z,20.27
2018-05-10T05:52:14.062Z,20.03
2018-05-10T05:54:41.461Z,20.06
2018-05-10T05:57:08.854Z,19.94
2018-05-10T05:59:36.230Z,20.07
2018-05-10T06:02:03.623Z,20.05
2018-05-10T06:04:31.018Z,19.66
2018-05-10T06:06:58.412Z,20.31
2018-05-10T06:09:25.807Z,20.05
2018-05-10T06:11:53.203Z,19.41
2018-05-10T06:14:20.599Z,18.73
2018-05-10T06:16:47.987Z,18.78
2018-05-10T06:19:16.798Z,19.38
2018-05-10T06:21:44.189Z,19.96
2018-05-10T06:24:11.574Z,20.11
2018-05-10T06:26:38.955Z,20.24
2018-05-10T06:29:06.393Z,20.21
2018-05-10T06:31:33.913Z,20.31
2018-05-10T06:34:01.318Z,20.55
2018-05-10T06:36:28.689Z,20.19
2018-05-10T06:38:56.085Z,20.32
2018-05-10T06:41:23.519Z,19.71
2018-05-10T06:43:50.855Z,18.90
2018-05-10T06:46:18.232Z,18.66
2018-05-10T06:48:45.662Z,18.20
2018-05-10T06:51:13.042Z,18.27
2018-05-10T06:53:40.485Z,18.29
2018-05-10T06:56:07.921Z,18.62
2018-05-10T06:58:35.402Z,18.57
2018-05-10T07:01:02.775Z,19.12
2018-05-10T07:03:30.244Z,19.22
2018-05-10T07:05:57.643Z,19.14
2018-05-10T07:08:25.028Z,19.26
2018-05-10T07:10:52.432Z,18.91
2018-05-10T07:13:19.814Z,18.79
2018-05-10T07:15:47.252Z,18.80
2018-05-10T07:18:14.635Z,18.85
2018-05-10T07:20:42.045Z,18.93
2018-05-10T07:23:09.667Z,18.91
2018-05-10T07:25:37.085Z,18.87
2018-05-10T07:28:04.465Z,19.19
2018-05-10T07:30:31.846Z,19.14
2018-05-10T07:32:59.293Z,19.09
2018-05-10T07:35:26.693Z,19.28
2018-05-10T07:37:54.062Z,19.46
2018-05-10T07:40:21.486Z,19.41
2018-05-10T07:42:48.867Z,19.11
2018-05-10T07:45:16.255Z,19.06
2018-05-10T07:47:43.654Z,18.92
2018-05-10T07:50:11.047Z,18.94
2018-05-10T07:52:38.444Z,19.04
2018-05-10T07:55:05.843Z,19.13
2018-05-10T07:57:33.496Z,19.30
2018-05-10T08:00:00.896Z,19.22
2018-05-10T08:02:28.284Z,19.23
2018-05-10T08:04:55.696Z,19.47
2018-05-10T08:07:23.081Z,19.22
2018-05-10T08:09:50.475Z,19.11
2018-05-10T08:12:17.853Z,19.01
2018-05-10T08:14:46.128Z,19.12
2018-05-10T08:17:13.524Z,18.99
2018-05-10T08:19:40.918Z,19.41
2018-05-10T08:22:08.303Z,19.15
2018-05-10T08:24:35.708Z,19.06
2018-05-10T08:27:03.109Z,18.92
2018-05-10T08:29:30.538Z,18.91
2018-05-10T08:31:57.908Z,19.07
2018-05-10T08:34:25.308Z,19.44
2018-05-10T08:36:52.707Z,19.35
2018-05-10T08:39:20.125Z,19.65
2018-05-10T08:41:47.509Z,19.59
2018-05-10T08:44:14.931Z,19.73
2018-05-10T08:46:42.323Z,19.68
2018-05-10T08:49:09.727Z,19.91
2018-05-10T08:51:37.157Z,19.63
2018-05-10T08:54:04.508Z,19.74
2018-05-10T08:56:32.039Z,19.47
2018-05-10T08:58:59.417Z,19.90
2018-05-10T09:01:26.862Z,19.72
2018-05-10T09:03:54.279Z,19.66
2018-05-10T09:06:21.679Z,19.70
2018-05-10T09:08:49.076Z,19.64
2018-05-10T09:11:16.503Z,19.66
2018-05-10T09:13:43.886Z,19.59
2018-05-10T09:16:11.290Z,19.62
2018-05-10T09:18:38.674Z,19.64
2018-05-10T09:21:06.065Z,19.99
2018-05-10T09:23:33.452Z,20.34
2018-05-10T09:26:00.868Z,20.14
2018-05-10T09:28:28.236Z,20.18
2018-05-10T09:30:55.655Z,19.98
2018-05-10T09:33:23.037Z,19.83
2018-05-10T09:35:50.433Z,19.90
2018-05-10T09:38:17.827Z,19.98
2018-05-10T09:40:45.860Z,19.68
2018-05-10T09:43:13.240Z,19.51
2018-05-10T09:45:40.637Z,19.79
2018-05-10T09:48:08.019Z,19.72
2018-05-10T09:50:35.557Z,19.97
2018-05-10T09:53:02.930Z,19.93
2018-05-10T09:55:30.449Z,19.83
2018-05-10T09:57:57.848Z,19.60
2018-05-10T10:00:30.242Z,20.06
2018-05-10T10:02:57.638Z,19.95
2018-05-10T10:05:25.024Z,20.32
2018-05-10T10:07:52.707Z,20.12
2018-05-10T10:10:20.111Z,20.48
2018-05-10T10:12:47.485Z,20.14
2018-05-10T10:15:14.890Z,20.11
2018-05-10T10:17:42.374Z,20.28
2018-05-10T10:20:09.678Z,20.30
2018-05-10T10:22:37.065Z,20.72
2018-05-10T10:25:04.459Z,20.94
2018-05-10T10:27:32.067Z,20.65
2018-05-10T10:29:59.489Z,21.13
2018-05-10T10:32:27.120Z,20.55
2018-05-10T10:34:54.465Z,20.41
2018-05-10T10:37:21.857Z,20.86
2018-05-10T10:39:49.247Z,20.97
2018-05-10T10:42:16.804Z,21.27
2018-05-10T10:44:44.269Z,20.98
2018-05-10T10:47:11.669Z,21.35
2018-05-10T10:49:39.104Z,20.52
2018-05-10T10:52:06.521Z,20.99
2018-05-10T10:54:33.928Z,21.19
2018-05-10T10:57:01.311Z,21.14
2018-05-10T10:59:28.887Z,20.86
2018-05-10T11:01:56.330Z,21.50
2018-05-10T11:04:23.683Z,21.40
2018-05-10T11:06:51.105Z,21.62
2018-05-10T11:09:18.650Z,21.61
2018-05-10T11:11:47.246Z,21.57
2018-05-10T11:14:14.681Z,21.84
2018-05-10T11:16:42.123Z,21.93
2018-05-10T11:19:09.532Z,21.75
2018-05-10T11:21:36.940Z,21.32
2018-05-10T11:24:04.339Z,21.32
2018-05-10T11:26:31.740Z,22.12
2018-05-10T11:28:59.159Z,21.58
2018-05-10T11:31:26.630Z,21.71
2018-05-10T11:33:54.041Z,21.34
2018-05-10T11:36:21.432Z,21.09
2018-05-10T11:38:48.826Z,21.45
2018-05-10T11:41:17.133Z,21.75
2018-05-10T11:43:44.553Z,21.28
2018-05-10T11:46:11.942Z,21.36
2018-05-10T11:48:39.408Z,20.75
2018-05-10T11:51:06.778Z,20.88
2018-05-10T11:53:34.164Z,20.96
2018-05-10T11:56:01.556Z,20.92
2018-05-10T11:58:28.951Z,20.93
2018-05-10T12:00:56.351Z,20.85
2018-05-10T12:03:23.741Z,20.88
2018-05-10T12:05:52.896Z,20.74
2018-05-10T12:08:20.278Z,20.20
2018-05-10T12:10:47.685Z,20.37
2018-05-10T12:13:15.094Z,20.62
2018-05-10T12:15:42.476Z,20.79
2018-05-10T12:18:09.871Z,20.94
2018-05-10T12:20:37.264Z,20.66
2018-05-10T12:23:04.653Z,20.91
2018-05-10T12:25:32.116Z,21.11
2018-05-10T12:27:59.437Z,20.86
2018-05-10T12:30:26.909Z,20.96
2018-05-10T12:32:54.224Z,20.77
2018-05-10T12:35:21.611Z,20.37
2018-05-10T12:37:49.051Z,20.51
2018-05-10T12:40:17.396Z,20.72
2018-05-10T12:42:44.791Z,20.83
2018-05-10T12:45:12.176Z,20.55
2018-05-10T12:47:39.563Z,20.78
2018-05-10T12:50:06.966Z,20.81
2018-05-10T12:52:34.359Z,20.72
2018-05-10T12:55:01.759Z,20.68
2018-05-10T12:57:29.336Z,20.79
2018-05-10T12:59:56.800Z,20.71
2018-05-10T13:02:24.251Z,20.58
2018-05-10T13:04:51.680Z,20.38
2018-05-10T13:07:19.585Z,20.31
2018-05-10T13:09:47.672Z,20.51
2018-05-10T13:12:15.116Z,20.28
2018-05-10T13:14:42.514Z,20.92
2018-05-10T13:17:09.911Z,20.94
2018-05-10T13:19:37.299Z,20.70
2018-05-10T13:22:04.700Z,20.43
2018-05-10T13:24:32.389Z,20.57
2018-05-10T13:26:59.773Z,20.61
2018-05-10T13:29:27.190Z,20.67
2018-05-10T13:31:54.556Z,20.64
2018-05-10T13:34:22.139Z,20.74
2018-05-10T13:36:49.533Z,21.04
2018-05-10T13:39:17.719Z,21.14
2018-05-10T13:41:45.143Z,21.19
2018-05-10T13:44:12.592Z,21.25
2018-05-10T13:46:40.254Z,20.57
2018-05-10T13:49:07.608Z,20.85
2018-05-10T13:51:34.994Z,20.27
2018-05-10T13:54:02.387Z,20.09
2018-05-10T13:56:29.777Z,20.02
2018-05-10T13:58:57.319Z,20.60
2018-05-10T14:01:24.693Z,20.19
2018-05-10T14:03:52.086Z,19.66
2018-05-10T14:06:19.471Z,19.60
2018-05-10T14:08:47.802Z,19.76
2018-05-10T14:11:15.204Z,19.35
2018-05-10T14:13:42.898Z,19.81
2018-05-10T14:16:10.390Z,19.96
2018-05-10T14:18:37.794Z,19.40
2018-05-10T14:21:05.184Z,19.54
2018-05-10T14:23:32.588Z,19.19
2018-05-10T14:26:00.972Z,19.29
2018-05-10T14:28:28.380Z,19.28
2018-05-10T14:30:55.793Z,18.97
2018-05-10T14:33:23.201Z,19.35
2018-05-10T14:35:50.610Z,18.98
2018-05-10T14:38:18.000Z,18.91
2018-05-10T14:40:45.383Z,18.64
2018-05-10T14:43:12.784Z,18.90
2018-05-10T14:45:40.309Z,18.79
2018-05-10T14:48:07.720Z,18.52
2018-05-10T14:50:35.140Z,18.66
2018-05-10T14:53:02.519Z,18.74
2018-05-10T14:55:29.916Z,18.72
2018-05-10T14:57:57.290Z,18.53
2018-05-10T15:00:24.680Z,18.61
2018-05-10T15:02:52.259Z,18.40
2018-05-10T15:05:19.696Z,18.59
2018-05-10T15:07:48.144Z,18.40
2018-05-10T15:10:15.635Z,18.57
2018-05-10T15:12:43.032Z,18.51
2018-05-10T15:15:10.441Z,18.33
2018-05-10T15:17:37.827Z,18.28
2018-05-10T15:20:05.212Z,18.00
2018-05-10T15:22:32.605Z,18.03
2018-05-10T15:24:59.990Z,18.35
2018-05-10T15:27:28.571Z,18.44
2018-05-10T15:29:56.068Z,18.28
2018-05-10T15:32:23.472Z,18.34
2018-05-10T15:34:50.956Z,18.22
2018-05-10T15:37:18.919Z,18.27
2018-05-10T15:39:46.314Z,18.47
2018-05-10T15:42:13.707Z,18.48
2018-05-10T15:44:41.078Z,18.12
2018-05-10T15:47:08.463Z,18.07
2018-05-10T15:49:35.854Z,18.00
2018-05-10T15:52:03.266Z,18.02
2018-05-10T15:54:30.645Z,17.68
2018-05-10T15:56:58.062Z,17.83
2018-05-10T15:59:25.563Z,18.11
2018-05-10T16:01:52.820Z,18.17
2018-05-10T16:04:20.212Z,17.86
2018-05-10T16:06:48.385Z,17.83
2018-05-10T16:09:15.782Z,17.96
2018-05-10T16:11:43.201Z,17.52
2018-05-10T16:14:10.604Z,17.88
2018-05-10T16:16:37.980Z,17.96
2018-05-10T16:19:05.378Z,18.04
2018-05-10T16:21:32.914Z,18.25
2018-05-10T16:24:00.483Z,18.07
2018-05-10T16:26:27.914Z,18.06
2018-05-10T16:28:55.506Z,18.05
2018-05-10T16:31:22.936Z,17.89
2018-05-10T16:33:50.761Z,17.71
2018-05-10T16:36:19.881Z,17.74
2018-05-10T16:38:47.336Z,17.84
2018-05-10T16:41:14.813Z,17.87
2018-05-10T16:43:42.224Z,17.81
2018-05-10T16:46:09.817Z,18.03
2018-05-10T16:48:37.206Z,18.08
2018-05-10T16:51:04.599Z,17.79
2018-05-10T16:53:32.002Z,17.65
2018-05-10T16:55:59.492Z,17.82
2018-05-10T16:58:26.907Z,17.86
2018-05-10T17:00:54.330Z,18.01
2018-05-10T17:03:21.734Z,18.05
2018-05-10T17:05:49.124Z,18.14
2018-05-10T17:08:16.541Z,18.09
2018-05-10T17:10:43.935Z,18.30
2018-05-10T17:13:11.332Z,18.28
2018-05-10T17:15:38.724Z,18.31
2018-05-10T17:18:06.115Z,18.25
2018-05-10T17:20:33.508Z,18.16
2018-05-10T17:23:01.168Z,18.01
2018-05-10T17:25:28.579Z,17.94
2018-05-10T17:27:55.965Z,17.66
2018-05-10T17:30:23.362Z,17.99
2018-05-10T17:32:50.789Z,18.09
2018-05-10T17:35:18.874Z,17.82
2018-05-10T17:37:46.267Z,17.68
2018-05-10T17:40:13.647Z,17.57
2018-05-10T17:42:41.056Z,17.78
2018-05-10T17:45:08.439Z,17.80
2018-05-10T17:47:35.835Z,17.90
2018-05-10T17:50:03.211Z,17.90
2018-05-10T17:52:30.615Z,17.58
2018-05-10T17:54:58.008Z,17.48
2018-05-10T17:57:25.707Z,17.47
2018-05-10T17:59:53.097Z,17.68
2018-05-10T18:02:20.474Z,17.70
2018-05-10T18:04:47.886Z,17.63
2018-05-10T18:07:15.309Z,17.66
2018-05-10T18:09:42.652Z,17.84
2018-05-10T18:12:10.047Z,17.83
2018-05-10T18:14:37.438Z,17.56
2018-05-10T18:17:05.035Z,17.48
2018-05-10T18:19:32.431Z,17.45
2018-05-10T18:21:59.827Z,17.24
2018-05-10T18:24:27.228Z,17.15
2018-05-10T18:26:54.708Z,17.29
2018-05-10T18:29:22.031Z,17.30
2018-05-10T18:31:49.423Z,17.40
2018-05-10T18:34:16.825Z,17.48
2018-05-10T18:36:44.216Z,17.64
2018-05-10T18:39:11.616Z,17.42
2018-05-10T18:41:39.014Z,17.55
2018-05-10T18:44:06.438Z,17.54
2018-05-10T18:46:34.080Z,17.57
2018-05-10T18:49:01.635Z,17.48
2018-05-10T18:51:29.023Z,17.58
2018-05-10T18:53:56.453Z,17.40
2018-05-10T18:56:23.825Z,17.29
2018-05-10T18:58:51.554Z,17.04
2018-05-10T19:01:20.206Z,17.28
2018-05-10T19:03:47.616Z,17.05
2018-05-10T19:06:16.439Z,17.25
2018-05-10T19:08:43.819Z,17.26
2018-05-10T19:11:11.207Z,16.94
2018-05-10T19:13:38.601Z,17.14
2018-05-10T19:16:05.975Z,17.05
2018-05-10T19:18:33.374Z,16.99
2018-05-10T19:21:00.824Z,17.03
2018-05-10T19:23:28.163Z,16.98
2018-05-10T19:25:55.559Z,17.13
2018-05-10T19:28:22.967Z,17.05
2018-05-10T19:30:50.359Z,16.87
2018-05-10T19:33:17.759Z,16.92
2018-05-10T19:35:45.175Z,17.14
2018-05-10T19:38:12.583Z,17.04
2018-05-10T19:40:40.006Z,16.98
2018-05-10T19:43:07.405Z,17.13
2018-05-10T19:45:34.800Z,17.00
2018-05-10T19:48:02.198Z,16.72
2018-05-10T19:50:29.597Z,16.79
2018-05-10T19:52:56.988Z,16.79
2018-05-10T19:55:26.836Z,16.75
2018-05-10T19:57:54.207Z,16.93
2018-05-10T20:00:21.629Z,16.99
2018-05-10T20:02:49.564Z,17.01
2018-05-10T20:05:17.013Z,16.92
2018-05-10T20:07:44.391Z,16.79
2018-05-10T20:10:11.779Z,16.80
2018-05-10T20:12:39.171Z,16.91
2018-05-10T20:15:06.607Z,16.79
2018-05-10T20:17:33.998Z,16.79
2018-05-10T20:20:01.389Z,16.67
2018-05-10T20:22:28.765Z,16.62
2018-05-10T20:24:56.156Z,16.56
2018-05-10T20:27:23.534Z,16.71
2018-05-10T20:29:50.960Z,16.60
2018-05-10T20:32:18.554Z,16.46
2018-05-10T20:34:46.842Z,16.53
2018-05-10T20:37:14.203Z,16.35
2018-05-10T20:39:41.595Z,16.39
2018-05-10T20:42:08.974Z,16.56
2018-05-10T20:44:36.439Z,16.66
2018-05-10T20:47:03.751Z,16.51
2018-05-10T20:49:31.157Z,16.52
2018-05-10T20:51:58.762Z,16.59
2018-05-10T20:54:26.422Z,16.83
2018-05-10T20:56:54.179Z,16.41
2018-05-10T20:59:21.594Z,16.48
2018-05-10T21:01:50.124Z,16.41
2018-05-10T21:04:17.583Z,16.43
2018-05-10T21:06:45.118Z,16.54
2018-05-10T21:09:12.526Z,16.44
2018-05-10T21:11:39.973Z,16.52
2018-05-10T21:14:07.407Z,16.45
2018-05-10T21:16:34.861Z,16.49
2018-05-10T21:19:02.230Z,16.52
2018-05-10T21:21:29.646Z,16.39
2018-05-10T21:23:58.093Z,16.38
2018-05-10T21:26:25.500Z,16.25
2018-05-10T21:28:52.884Z,16.38
2018-05-10T21:31:20.260Z,16.38
2018-05-10T21:33:48.163Z,16.30
2018-05-10T21:36:15.507Z,16.41
2018-05-10T21:38:42.883Z,16.58
2018-05-10T21:41:10.285Z,16.38
2018-05-10T21:43:37.669Z,16.50
2018-05-10T21:46:05.071Z,16.39
2018-05-10T21:48:33.078Z,16.35
2018-05-10T21:51:00.480Z,16.41
2018-05-10T21:53:27.880Z,16.45
2018-05-10T21:55:55.280Z,16.34
2018-05-10T21:58:22.692Z,16.33
2018-05-10T22:00:50.102Z,16.24
2018-05-10T22:03:17.499Z,16.30
2018-05-10T22:05:44.887Z,16.20
2018-05-10T22:08:12.280Z,16.19
2018-05-10T22:10:39.684Z,16.31
2018-05-10T22:13:07.075Z,16.25
2018-05-10T22:15:34.476Z,16.17
2018-05-10T22:18:01.946Z,16.24
2018-05-10T22:20:29.264Z,16.35
2018-05-10T22:22:56.644Z,16.36
2018-05-10T22:25:24.050Z,16.35
2018-05-10T22:27:51.442Z,16.22
2018-05-10T22:30:18.918Z,16.21
2018-05-10T22:32:46.324Z,16.27
2018-05-10T22:35:13.716Z,16.40
2018-05-10T22:37:41.097Z,16.46
2018-05-10T22:40:08.501Z,16.21
2018-05-10T22:42:35.887Z,16.12
2018-05-10T22:45:03.284Z,16.18
2018-05-10T22:47:30.679Z,16.14
2018-05-10T22:49:58.070Z,16.20
2018-05-10T22:52:25.465Z,16.21
2018-05-10T22:54:52.851Z,16.25
2018-05-10T22:57:20.384Z,16.05
2018-05-10T22:59:47.863Z,16.20
2018-05-10T23:02:15.213Z,16.15
2018-05-10T23:04:42.618Z,16.11
2018-05-10T23:07:10.004Z,16.10
2018-05-10T23:09:37.415Z,15.98
2018-05-10T23:12:04.902Z,15.91
2018-05-10T23:14:32.388Z,16.02
2018-05-10T23:16:59.779Z,15.95
2018-05-10T23:19:27.184Z,15.96
2018-05-10T23:21:54.585Z,15.87
2018-05-10T23:24:21.989Z,15.74
2018-05-10T23:26:49.395Z,15.77
2018-05-10T23:29:16.783Z,15.74
2018-05-10T23:31:44.177Z,15.74
2018-05-10T23:34:11.564Z,15.68
2018-05-10T23:36:38.959Z,15.67
2018-05-10T23:39:06.353Z,15.50
2018-05-10T23:41:33.737Z,15.55
2018-05-10T23:44:01.155Z,15.57
2018-05-10T23:46:28.568Z,15.69
2018-05-10T23:48:55.956Z,15.59
2018-05-10T23:51:23.358Z,15.74
2018-05-10T23:53:50.751Z,15.71
2018-05-10T23:56:18.144Z,15.70
2018-05-10T23:58:45.543Z,15.53
